»·PEaware :: N29239 KOXR-KHAF

N29239 :: KOXR-KHAF

FLIGHT INFORMATION

Flight Status: Arrived
Operator: Privately registered:
United States
More flights under this callsign
Pilot: Evan M. (27470)
Aircraft: SOCATA TBM-900
(TBM9)
More flights by this aircraft type
Origin: KOXR Oxnard
United States
Destination: KHAF Half Moon Bay
United States
More flights between these airports :: More routes between these airports
Route: RZS SNS V25 OSI
File this flight plan on PilotEdge
Remarks:
Altitude:
(Current/Filed)
26,000ft
Speed:
(Current/Filed)
250kts
Departed: 19-Feb-21 02:37 PM
Arrived: 19-Feb-21 03:48 PM
Distance/Time
Traveled:
255nm/1:11
Distance/Time
To Go:
Arrived

Flight Plot

Page will automatically refresh every two minutes.

Flight plan parsing failed; only flown route is shown


Map Options




Map Legend


Flown Route
Filed Route
Departure Airport
Arrival Airport
Navaid (VOR, NDB)
Fix

Horizontal Profiles

Position Reports

Time Latitude Longitude Heading Altitude Ground
Speed
19-Feb-21 14:29 34.199284 -119.202622 188 46ft 0kts
19-Feb-21 14:30 34.199284 -119.202622 188 46ft 0kts
19-Feb-21 14:31 34.199284 -119.202622 188 46ft 0kts
19-Feb-21 14:32 34.199284 -119.202622 188 46ft 0kts
19-Feb-21 14:33 34.199395 -119.202862 40 47ft 0kts
19-Feb-21 14:34 34.199395 -119.202862 40 47ft 0kts
19-Feb-21 14:35 34.199736 -119.198736 90 43ft 16kts
19-Feb-21 14:36 34.200786 -119.202988 271 80ft 91kts
19-Feb-21 14:37 34.200300 -119.246311 267 2555ft 137kts
19-Feb-21 14:38 34.196002 -119.297208 267 5606ft 136kts
19-Feb-21 14:39 34.191257 -119.344009 268 7873ft 185kts
19-Feb-21 14:40 34.186302 -119.411801 283 9762ft 176kts
19-Feb-21 14:41 34.230469 -119.438302 323 12545ft 182kts
19-Feb-21 14:42 34.272779 -119.470102 315 15145ft 178kts
19-Feb-21 14:43 34.314411 -119.505995 315 17583ft 189kts
19-Feb-21 14:44 34.358535 -119.544044 313 19941ft 200kts
19-Feb-21 14:45 34.403615 -119.582855 312 21165ft 196kts
19-Feb-21 14:46 34.447377 -119.620573 310 22515ft 194kts
19-Feb-21 14:47 34.492006 -119.659365 310 23583ft 211kts
19-Feb-21 14:48 34.536799 -119.698133 308 25939ft 206kts
19-Feb-21 14:49 34.591701 -119.745562 311 26335ft 270kts
19-Feb-21 14:50 34.655546 -119.800904 311 26322ft 285kts
19-Feb-21 14:51 34.719573 -119.856694 311 26181ft 282kts
19-Feb-21 14:52 34.783608 -119.912558 311 26305ft 283kts
19-Feb-21 14:53 34.847467 -119.968450 311 26278ft 282kts
19-Feb-21 14:54 34.910641 -120.023687 310 26222ft 275kts
19-Feb-21 14:55 34.973679 -120.078923 311 26328ft 280kts
19-Feb-21 14:56 35.036934 -120.134571 311 26319ft 280kts
19-Feb-21 14:57 35.099797 -120.189931 309 26302ft 277kts
19-Feb-21 14:58 35.162875 -120.245608 317 26298ft 287kts
19-Feb-21 14:59 35.228416 -120.303475 315 26349ft 292kts
19-Feb-21 15:00 35.290837 -120.358885 310 26286ft 275kts
19-Feb-21 15:01 35.352877 -120.413886 310 26303ft 274kts
19-Feb-21 15:02 35.414600 -120.468705 310 26287ft 274kts
19-Feb-21 15:03 35.476211 -120.523703 308 26298ft 272kts
19-Feb-21 15:04 35.525637 -120.588694 302 25259ft 259kts
19-Feb-21 15:05 35.573658 -120.653468 306 23760ft 263kts
19-Feb-21 15:06 35.631283 -120.709538 314 22208ft 264kts
19-Feb-21 15:07 35.690420 -120.760093 314 20658ft 253kts
19-Feb-21 15:08 35.744982 -120.806711 313 20366ft 227kts
19-Feb-21 15:09 35.796173 -120.850525 313 20323ft 231kts
19-Feb-21 15:10 35.850435 -120.896946 314 20289ft 240kts
19-Feb-21 15:11 35.905423 -120.944206 313 20293ft 244kts
19-Feb-21 15:12 35.961610 -120.992281 313 20205ft 245kts
19-Feb-21 15:13 36.017043 -121.040160 313 20258ft 244kts
19-Feb-21 15:14 36.073416 -121.088759 313 20289ft 247kts
19-Feb-21 15:15 36.129509 -121.137266 313 20261ft 245kts
19-Feb-21 15:16 36.185568 -121.185630 313 20350ft 248kts
19-Feb-21 15:17 36.240244 -121.235655 320 20243ft 259kts
19-Feb-21 15:18 36.296355 -121.281733 313 18566ft 224kts
19-Feb-21 15:19 36.345407 -121.324535 313 17037ft 213kts
19-Feb-21 15:20 36.393581 -121.366523 314 15490ft 210kts
19-Feb-21 15:21 36.441623 -121.408497 316 13982ft 220kts
19-Feb-21 15:22 36.493852 -121.454073 317 12470ft 236kts
19-Feb-21 15:23 36.549063 -121.502429 319 10499ft 246kts
19-Feb-21 15:24 36.601884 -121.548732 319 9987ft 218kts
19-Feb-21 15:25 36.651567 -121.592444 319 9965ft 219kts
19-Feb-21 15:26 36.698257 -121.640412 314 9964ft 218kts
19-Feb-21 15:27 36.744048 -121.690163 314 9966ft 219kts
19-Feb-21 15:28 36.790193 -121.740308 314 9967ft 222kts
19-Feb-21 15:29 36.840353 -121.794954 316 8295ft 253kts
19-Feb-21 15:30 36.890154 -121.849219 318 6371ft 223kts
19-Feb-21 15:31 36.934985 -121.898159 318 5986ft 210kts
19-Feb-21 15:32 36.979509 -121.946879 317 5973ft 211kts
19-Feb-21 15:33 37.022525 -121.994143 317 5973ft 204kts
19-Feb-21 15:34 37.065285 -122.041084 317 5978ft 201kts
19-Feb-21 15:35 37.107664 -122.087444 317 5742ft 207kts
19-Feb-21 15:36 37.149466 -122.133570 317 5105ft 191kts
19-Feb-21 15:37 37.188151 -122.175892 318 5052ft 184kts
19-Feb-21 15:38 37.231504 -122.210918 325 5033ft 185kts
19-Feb-21 15:39 37.278569 -122.247445 325 4120ft 206kts
19-Feb-21 15:40 37.326213 -122.284925 321 3794ft 197kts
19-Feb-21 15:41 37.367402 -122.330266 313 3483ft 198kts
19-Feb-21 15:42 37.407080 -122.376558 313 3337ft 192kts
19-Feb-21 15:43 37.444024 -122.421962 312 2794ft 165kts
19-Feb-21 15:44 37.470769 -122.449404 310 1986ft 105kts
19-Feb-21 15:45 37.491864 -122.476634 311 686ft 96kts
19-Feb-21 15:46 37.511031 -122.498366 319 51ft 81kts
19-Feb-21 15:47 37.518648 -122.506731 40 68ft 14kts
19-Feb-21 15:48 37.516167 -122.501018 123 55ft 25kts
19-Feb-21 15:49 37.514126 -122.496214 125 46ft 0kts
19-Feb-21 15:50 37.514126 -122.496214 125 46ft 0kts
19-Feb-21 15:51 37.514126 -122.496214 125 46ft 0kts
19-Feb-21 15:52 37.514126 -122.496214 125 46ft 0kts
19-Feb-21 15:54 37.514126 -122.496214 125 46ft 0kts
19-Feb-21 15:55 37.514126 -122.496214 125 46ft 0kts
19-Feb-21 15:56 37.514126 -122.496214 125 46ft 0kts
19-Feb-21 15:57 37.514126 -122.496214 125 46ft 0kts
19-Feb-21 15:58 37.514126 -122.496214 125 46ft 0kts
19-Feb-21 15:59 37.514126 -122.496214 125 46ft 0kts
19-Feb-21 16:00 37.514126 -122.496214 125 46ft 0kts
19-Feb-21 16:01 37.514126 -122.496214 125 46ft 0kts
19-Feb-21 16:02 37.514126 -122.496214 125 46ft 0kts

Navigation Log

Ident Type
Flight plan parsing failed, navigation log unavailable